sensor_id;sensor_type;location;lat;lon;timestamp;P1;durP1;ratioP1;P2;durP2;ratioP2
3321;SDS011;1673;51.388;7.086;2023-06-14T00:01:37;12.43;;;8.07;;
3321;SDS011;1673;51.388;7.086;2023-06-14T00:04:06;14.40;;;7.15;;
3321;SDS011;1673;51.388;7.086;2023-06-14T00:06:37;11.50;;;8.10;;
3321;SDS011;1673;51.388;7.086;2023-06-14T00:09:08;11.52;;;7.82;;
3321;SDS011;1673;51.388;7.086;2023-06-14T00:11:41;12.18;;;7.82;;
3321;SDS011;1673;51.388;7.086;2023-06-14T00:14:11;11.32;;;7.70;;
3321;SDS011;1673;51.388;7.086;2023-06-14T00:16:41;11.30;;;7.97;;
3321;SDS011;1673;51.388;7.086;2023-06-14T00:19:11;13.52;;;8.13;;
3321;SDS011;1673;51.388;7.086;2023-06-14T00:21:43;11.30;;;8.30;;
3321;SDS011;1673;51.388;7.086;2023-06-14T00:24:13;14.00;;;7.80;;
3321;SDS011;1673;51.388;7.086;2023-06-14T00:26:45;11.75;;;7.97;;
3321;SDS011;1673;51.388;7.086;2023-06-14T00:29:16;12.93;;;7.93;;
3321;SDS011;1673;51.388;7.086;2023-06-14T00:31:46;10.60;;;7.72;;
3321;SDS011;1673;51.388;7.086;2023-06-14T00:34:17;13.27;;;8.43;;
3321;SDS011;1673;51.388;7.086;2023-06-14T00:36:47;14.63;;;8.55;;
3321;SDS011;1673;51.388;7.086;2023-06-14T00:39:17;13.02;;;8.57;;
3321;SDS011;1673;51.388;7.086;2023-06-14T00:41:49;14.00;;;8.53;;
3321;SDS011;1673;51.388;7.086;2023-06-14T00:44:19;13.75;;;8.65;;
3321;SDS011;1673;51.388;7.086;2023-06-14T00:46:50;13.93;;;8.65;;
3321;SDS011;1673;51.388;7.086;2023-06-14T00:49:22;12.27;;;8.00;;
3321;SDS011;1673;51.388;7.086;2023-06-14T00:51:52;13.75;;;8.40;;
3321;SDS011;1673;51.388;7.086;2023-06-14T00:54:22;13.80;;;8.63;;
3321;SDS011;1673;51.388;7.086;2023-06-14T00:56:54;12.98;;;8.52;;
3321;SDS011;1673;51.388;7.086;2023-06-14T00:59:24;14.75;;;8.10;;
3321;SDS011;1673;51.388;7.086;2023-06-14T01:01:54;16.92;;;8.93;;
3321;SDS011;1673;51.388;7.086;2023-06-14T01:04:24;17.60;;;9.30;;
3321;SDS011;1673;51.388;7.086;2023-06-14T01:06:55;13.90;;;8.50;;
3321;SDS011;1673;51.388;7.086;2023-06-14T01:09:31;11.93;;;8.65;;
3321;SDS011;1673;51.388;7.086;2023-06-14T01:12:11;13.50;;;9.03;;
3321;SDS011;1673;51.388;7.086;2023-06-14T01:14:45;14.30;;;8.43;;
3321;SDS011;1673;51.388;7.086;2023-06-14T01:17:18;12.00;;;8.40;;
3321;SDS011;1673;51.388;7.086;2023-06-14T01:19:50;14.23;;;8.40;;
3321;SDS011;1673;51.388;7.086;2023-06-14T01:22:24;13.07;;;8.77;;
3321;SDS011;1673;51.388;7.086;2023-06-14T01:24:58;14.02;;;8.77;;
3321;SDS011;1673;51.388;7.086;2023-06-14T01:27:27;14.07;;;9.10;;
3321;SDS011;1673;51.388;7.086;2023-06-14T01:29:59;12.98;;;8.20;;
3321;SDS011;1673;51.388;7.086;2023-06-14T01:32:31;14.83;;;8.10;;
3321;SDS011;1673;51.388;7.086;2023-06-14T01:35:01;15.05;;;8.20;;
3321;SDS011;1673;51.388;7.086;2023-06-14T01:37:32;10.88;;;8.07;;
3321;SDS011;1673;51.388;7.086;2023-06-14T01:40:05;14.00;;;9.10;;
3321;SDS011;1673;51.388;7.086;2023-06-14T01:42:37;12.90;;;8.60;;
3321;SDS011;1673;51.388;7.086;2023-06-14T01:45:09;12.85;;;8.48;;
3321;SDS011;1673;51.388;7.086;2023-06-14T01:47:39;13.90;;;8.43;;
3321;SDS011;1673;51.388;7.086;2023-06-14T01:50:10;13.67;;;8.90;;
3321;SDS011;1673;51.388;7.086;2023-06-14T01:52:40;17.45;;;9.77;;
3321;SDS011;1673;51.388;7.086;2023-06-14T01:55:12;18.05;;;9.15;;
3321;SDS011;1673;51.388;7.086;2023-06-14T01:57:44;15.25;;;9.15;;
3321;SDS011;1673;51.388;7.086;2023-06-14T02:00:14;14.45;;;9.20;;
3321;SDS011;1673;51.388;7.086;2023-06-14T02:02:47;15.05;;;8.88;;
3321;SDS011;1673;51.388;7.086;2023-06-14T02:05:18;14.15;;;8.93;;
3321;SDS011;1673;51.388;7.086;2023-06-14T02:07:48;14.65;;;8.75;;
3321;SDS011;1673;51.388;7.086;2023-06-14T02:10:20;12.07;;;9.00;;
3321;SDS011;1673;51.388;7.086;2023-06-14T02:12:50;13.53;;;9.03;;
3321;SDS011;1673;51.388;7.086;2023-06-14T02:15:20;15.02;;;9.20;;
3321;SDS011;1673;51.388;7.086;2023-06-14T02:17:50;16.02;;;9.90;;
3321;SDS011;1673;51.388;7.086;2023-06-14T02:20:20;16.42;;;8.80;;
3321;SDS011;1673;51.388;7.086;2023-06-14T02:22:50;12.98;;;9.07;;
3321;SDS011;1673;51.388;7.086;2023-06-14T02:25:22;17.27;;;9.52;;
3321;SDS011;1673;51.388;7.086;2023-06-14T02:27:54;13.38;;;9.40;;
3321;SDS011;1673;51.388;7.086;2023-06-14T02:30:24;15.40;;;9.37;;
3321;SDS011;1673;51.388;7.086;2023-06-14T02:32:55;16.95;;;9.80;;
3321;SDS011;1673;51.388;7.086;2023-06-14T02:35:25;15.32;;;9.30;;
3321;SDS011;1673;51.388;7.086;2023-06-14T02:37:56;14.00;;;8.70;;
3321;SDS011;1673;51.388;7.086;2023-06-14T02:40:28;15.25;;;9.30;;
3321;SDS011;1673;51.388;7.086;2023-06-14T02:42:58;15.20;;;9.50;;
3321;SDS011;1673;51.388;7.086;2023-06-14T02:45:28;12.65;;;9.02;;
3321;SDS011;1673;51.388;7.086;2023-06-14T02:47:58;17.63;;;10.00;;
3321;SDS011;1673;51.388;7.086;2023-06-14T02:50:28;15.20;;;9.00;;
3321;SDS011;1673;51.388;7.086;2023-06-14T02:52:59;14.18;;;9.23;;
3321;SDS011;1673;51.388;7.086;2023-06-14T02:55:32;15.98;;;9.13;;
3321;SDS011;1673;51.388;7.086;2023-06-14T02:58:06;15.70;;;9.40;;
3321;SDS011;1673;51.388;7.086;2023-06-14T03:00:36;17.27;;;10.05;;
3321;SDS011;1673;51.388;7.086;2023-06-14T03:03:08;15.02;;;9.40;;
3321;SDS011;1673;51.388;7.086;2023-06-14T03:05:46;15.30;;;10.00;;
3321;SDS011;1673;51.388;7.086;2023-06-14T03:08:21;15.30;;;9.55;;
3321;SDS011;1673;51.388;7.086;2023-06-14T03:10:57;14.25;;;9.10;;
3321;SDS011;1673;51.388;7.086;2023-06-14T03:13:29;17.08;;;9.50;;
3321;SDS011;1673;51.388;7.086;2023-06-14T03:15:59;17.08;;;9.55;;
3321;SDS011;1673;51.388;7.086;2023-06-14T03:18:32;16.17;;;9.55;;
3321;SDS011;1673;51.388;7.086;2023-06-14T03:21:04;15.50;;;9.27;;
3321;SDS011;1673;51.388;7.086;2023-06-14T03:23:40;14.10;;;9.05;;
3321;SDS011;1673;51.388;7.086;2023-06-14T03:26:13;19.33;;;9.75;;
3321;SDS011;1673;51.388;7.086;2023-06-14T03:28:46;14.13;;;9.93;;
3321;SDS011;1673;51.388;7.086;2023-06-14T03:31:17;14.10;;;9.33;;
3321;SDS011;1673;51.388;7.086;2023-06-14T03:33:47;14.00;;;8.60;;
3321;SDS011;1673;51.388;7.086;2023-06-14T03:36:19;15.25;;;9.50;;
3321;SDS011;1673;51.388;7.086;2023-06-14T03:38:49;16.77;;;9.65;;
3321;SDS011;1673;51.388;7.086;2023-06-14T03:41:22;14.43;;;9.20;;
3321;SDS011;1673;51.388;7.086;2023-06-14T03:43:53;14.20;;;9.68;;
3321;SDS011;1673;51.388;7.086;2023-06-14T03:46:23;15.30;;;9.57;;
3321;SDS011;1673;51.388;7.086;2023-06-14T03:48:53;17.33;;;10.00;;
3321;SDS011;1673;51.388;7.086;2023-06-14T03:51:23;14.30;;;8.95;;
3321;SDS011;1673;51.388;7.086;2023-06-14T03:53:55;15.15;;;9.20;;
3321;SDS011;1673;51.388;7.086;2023-06-14T03:56:33;13.45;;;8.77;;
3321;SDS011;1673;51.388;7.086;2023-06-14T03:59:06;18.08;;;9.90;;
3321;SDS011;1673;51.388;7.086;2023-06-14T04:01:37;15.73;;;9.70;;
3321;SDS011;1673;51.388;7.086;2023-06-14T04:04:14;14.63;;;8.85;;
3321;SDS011;1673;51.388;7.086;2023-06-14T04:06:45;15.45;;;9.52;;
3321;SDS011;1673;51.388;7.086;2023-06-14T04:09:16;15.35;;;9.88;;
3321;SDS011;1673;51.388;7.086;2023-06-14T04:11:49;15.57;;;9.57;;
3321;SDS011;1673;51.388;7.086;2023-06-14T04:14:19;14.90;;;9.20;;
3321;SDS011;1673;51.388;7.086;2023-06-14T04:16:49;15.27;;;9.40;;
3321;SDS011;1673;51.388;7.086;2023-06-14T04:19:20;13.93;;;9.45;;
3321;SDS011;1673;51.388;7.086;2023-06-14T04:21:49;17.35;;;9.50;;
3321;SDS011;1673;51.388;7.086;2023-06-14T04:24:20;19.30;;;9.30;;
3321;SDS011;1673;51.388;7.086;2023-06-14T04:26:58;14.50;;;9.55;;
3321;SDS011;1673;51.388;7.086;2023-06-14T04:29:29;14.93;;;8.98;;
3321;SDS011;1673;51.388;7.086;2023-06-14T04:32:04;14.05;;;9.10;;
3321;SDS011;1673;51.388;7.086;2023-06-14T04:34:38;15.48;;;8.40;;
3321;SDS011;1673;51.388;7.086;2023-06-14T04:37:08;11.40;;;7.90;;
3321;SDS011;1673;51.388;7.086;2023-06-14T04:39:40;15.40;;;8.15;;
3321;SDS011;1673;51.388;7.086;2023-06-14T04:42:14;12.67;;;7.80;;
3321;SDS011;1673;51.388;7.086;2023-06-14T04:44:47;12.13;;;7.82;;
3321;SDS011;1673;51.388;7.086;2023-06-14T04:47:17;12.18;;;7.97;;
3321;SDS011;1673;51.388;7.086;2023-06-14T04:49:47;14.60;;;7.78;;
3321;SDS011;1673;51.388;7.086;2023-06-14T04:52:20;11.98;;;7.70;;
3321;SDS011;1673;51.388;7.086;2023-06-14T04:54:54;16.30;;;7.80;;
3321;SDS011;1673;51.388;7.086;2023-06-14T04:57:27;13.43;;;7.30;;
3321;SDS011;1673;51.388;7.086;2023-06-14T04:59:58;12.57;;;7.30;;
3321;SDS011;1673;51.388;7.086;2023-06-14T05:02:31;12.13;;;7.60;;
3321;SDS011;1673;51.388;7.086;2023-06-14T05:05:04;11.93;;;7.27;;
3321;SDS011;1673;51.388;7.086;2023-06-14T05:07:35;11.32;;;7.40;;
3321;SDS011;1673;51.388;7.086;2023-06-14T05:10:08;13.32;;;7.30;;
3321;SDS011;1673;51.388;7.086;2023-06-14T05:12:41;11.80;;;7.50;;
3321;SDS011;1673;51.388;7.086;2023-06-14T05:15:13;11.25;;;7.25;;
3321;SDS011;1673;51.388;7.086;2023-06-14T05:17:44;14.45;;;7.65;;
3321;SDS011;1673;51.388;7.086;2023-06-14T05:20:19;13.35;;;7.90;;
3321;SDS011;1673;51.388;7.086;2023-06-14T05:22:49;14.50;;;8.07;;
3321;SDS011;1673;51.388;7.086;2023-06-14T05:25:19;14.95;;;7.70;;
3321;SDS011;1673;51.388;7.086;2023-06-14T05:27:52;16.17;;;7.30;;
3321;SDS011;1673;51.388;7.086;2023-06-14T05:30:22;10.45;;;7.03;;
3321;SDS011;1673;51.388;7.086;2023-06-14T05:32:52;15.35;;;7.60;;
3321;SDS011;1673;51.388;7.086;2023-06-14T05:35:22;11.73;;;6.90;;
3321;SDS011;1673;51.388;7.086;2023-06-14T05:37:53;12.30;;;7.43;;
3321;SDS011;1673;51.388;7.086;2023-06-14T05:40:23;13.27;;;7.63;;
3321;SDS011;1673;51.388;7.086;2023-06-14T05:42:55;16.77;;;7.28;;
3321;SDS011;1673;51.388;7.086;2023-06-14T05:45:25;14.97;;;7.90;;
3321;SDS011;1673;51.388;7.086;2023-06-14T05:47:55;12.30;;;7.05;;
3321;SDS011;1673;51.388;7.086;2023-06-14T05:50:24;12.83;;;7.37;;
3321;SDS011;1673;51.388;7.086;2023-06-14T05:52:54;14.25;;;7.22;;
3321;SDS011;1673;51.388;7.086;2023-06-14T05:55:24;13.88;;;7.03;;
3321;SDS011;1673;51.388;7.086;2023-06-14T05:57:56;10.52;;;6.40;;
3321;SDS011;1673;51.388;7.086;2023-06-14T06:00:27;13.25;;;6.70;;
3321;SDS011;1673;51.388;7.086;2023-06-14T06:02:57;9.13;;;6.07;;
3321;SDS011;1673;51.388;7.086;2023-06-14T06:05:27;13.00;;;6.57;;
3321;SDS011;1673;51.388;7.086;2023-06-14T06:07:57;13.55;;;6.43;;
3321;SDS011;1673;51.388;7.086;2023-06-14T06:10:27;12.10;;;5.90;;
3321;SDS011;1673;51.388;7.086;2023-06-14T06:12:59;13.60;;;6.40;;
3321;SDS011;1673;51.388;7.086;2023-06-14T06:15:29;10.77;;;5.80;;
3321;SDS011;1673;51.388;7.086;2023-06-14T06:17:59;11.93;;;6.22;;
3321;SDS011;1673;51.388;7.086;2023-06-14T06:20:29;10.75;;;5.60;;
3321;SDS011;1673;51.388;7.086;2023-06-14T06:22:58;11.88;;;5.70;;
3321;SDS011;1673;51.388;7.086;2023-06-14T06:25:29;11.50;;;5.50;;
3321;SDS011;1673;51.388;7.086;2023-06-14T06:28:03;11.60;;;5.40;;
3321;SDS011;1673;51.388;7.086;2023-06-14T06:30:33;10.68;;;5.10;;
3321;SDS011;1673;51.388;7.086;2023-06-14T06:33:03;8.63;;;5.28;;
3321;SDS011;1673;51.388;7.086;2023-06-14T06:35:33;10.02;;;4.80;;
3321;SDS011;1673;51.388;7.086;2023-06-14T06:38:04;8.25;;;4.70;;
3321;SDS011;1673;51.388;7.086;2023-06-14T06:40:35;9.00;;;4.72;;
3321;SDS011;1673;51.388;7.086;2023-06-14T06:43:07;10.70;;;4.33;;
3321;SDS011;1673;51.388;7.086;2023-06-14T06:45:44;8.05;;;4.32;;
3321;SDS011;1673;51.388;7.086;2023-06-14T06:48:14;8.03;;;4.30;;
3321;SDS011;1673;51.388;7.086;2023-06-14T06:50:44;7.10;;;3.88;;
3321;SDS011;1673;51.388;7.086;2023-06-14T06:53:14;10.07;;;3.60;;
3321;SDS011;1673;51.388;7.086;2023-06-14T06:56:00;8.23;;;3.60;;
3321;SDS011;1673;51.388;7.086;2023-06-14T06:58:33;8.25;;;3.70;;
3321;SDS011;1673;51.388;7.086;2023-06-14T07:01:03;9.90;;;3.90;;
3321;SDS011;1673;51.388;7.086;2023-06-14T07:03:32;7.30;;;4.10;;
3321;SDS011;1673;51.388;7.086;2023-06-14T07:06:02;7.03;;;3.20;;
3321;SDS011;1673;51.388;7.086;2023-06-14T07:08:33;7.10;;;3.77;;
3321;SDS011;1673;51.388;7.086;2023-06-14T07:11:05;5.78;;;3.50;;
3321;SDS011;1673;51.388;7.086;2023-06-14T07:13:38;6.95;;;3.42;;
3321;SDS011;1673;51.388;7.086;2023-06-14T07:16:08;7.65;;;3.20;;
3321;SDS011;1673;51.388;7.086;2023-06-14T07:18:38;5.70;;;2.80;;
3321;SDS011;1673;51.388;7.086;2023-06-14T07:21:07;6.00;;;2.90;;
3321;SDS011;1673;51.388;7.086;2023-06-14T07:23:37;6.30;;;2.60;;
3321;SDS011;1673;51.388;7.086;2023-06-14T07:26:07;10.07;;;2.80;;
3321;SDS011;1673;51.388;7.086;2023-06-14T07:28:39;6.63;;;3.35;;
3321;SDS011;1673;51.388;7.086;2023-06-14T07:31:11;8.90;;;3.70;;
3321;SDS011;1673;51.388;7.086;2023-06-14T07:33:41;9.10;;;3.58;;
3321;SDS011;1673;51.388;7.086;2023-06-14T07:36:11;5.72;;;3.80;;
3321;SDS011;1673;51.388;7.086;2023-06-14T07:38:41;8.10;;;3.90;;
3321;SDS011;1673;51.388;7.086;2023-06-14T07:41:11;6.78;;;3.30;;
3321;SDS011;1673;51.388;7.086;2023-06-14T07:43:43;6.95;;;3.38;;
3321;SDS011;1673;51.388;7.086;2023-06-14T07:46:13;5.80;;;3.22;;
3321;SDS011;1673;51.388;7.086;2023-06-14T07:48:43;7.28;;;3.28;;
3321;SDS011;1673;51.388;7.086;2023-06-14T07:51:13;6.43;;;3.05;;
3321;SDS011;1673;51.388;7.086;2023-06-14T07:53:43;6.38;;;3.00;;
3321;SDS011;1673;51.388;7.086;2023-06-14T07:56:13;5.18;;;2.70;;
3321;SDS011;1673;51.388;7.086;2023-06-14T07:58:46;9.05;;;3.30;;
3321;SDS011;1673;51.388;7.086;2023-06-14T08:01:15;5.80;;;3.40;;
3321;SDS011;1673;51.388;7.086;2023-06-14T08:03:46;6.43;;;3.03;;
3321;SDS011;1673;51.388;7.086;2023-06-14T08:06:16;7.90;;;3.47;;
3321;SDS011;1673;51.388;7.086;2023-06-14T08:08:46;11.88;;;3.15;;
3321;SDS011;1673;51.388;7.086;2023-06-14T08:11:16;7.53;;;3.10;;
3321;SDS011;1673;51.388;7.086;2023-06-14T08:13:48;7.35;;;3.40;;
3321;SDS011;1673;51.388;7.086;2023-06-14T08:16:18;7.38;;;3.20;;
3321;SDS011;1673;51.388;7.086;2023-06-14T08:18:48;5.75;;;3.10;;
3321;SDS011;1673;51.388;7.086;2023-06-14T08:21:18;5.78;;;3.10;;
3321;SDS011;1673;51.388;7.086;2023-06-14T08:23:48;9.57;;;3.00;;
3321;SDS011;1673;51.388;7.086;2023-06-14T08:26:19;8.10;;;3.03;;
3321;SDS011;1673;51.388;7.086;2023-06-14T08:28:52;5.40;;;3.08;;
3321;SDS011;1673;51.388;7.086;2023-06-14T08:31:22;5.72;;;3.00;;
3321;SDS011;1673;51.388;7.086;2023-06-14T08:33:52;6.25;;;3.20;;
3321;SDS011;1673;51.388;7.086;2023-06-14T08:36:21;6.28;;;3.00;;
3321;SDS011;1673;51.388;7.086;2023-06-14T08:38:51;6.95;;;3.10;;
3321;SDS011;1673;51.388;7.086;2023-06-14T08:41:22;10.35;;;3.00;;
3321;SDS011;1673;51.388;7.086;2023-06-14T08:43:56;7.90;;;2.90;;
3321;SDS011;1673;51.388;7.086;2023-06-14T08:46:26;5.30;;;2.80;;
3321;SDS011;1673;51.388;7.086;2023-06-14T08:48:56;4.75;;;2.70;;
3321;SDS011;1673;51.388;7.086;2023-06-14T08:51:26;5.93;;;2.70;;
3321;SDS011;1673;51.388;7.086;2023-06-14T08:54:00;7.40;;;2.65;;
3321;SDS011;1673;51.388;7.086;2023-06-14T08:56:30;6.90;;;2.50;;
3321;SDS011;1673;51.388;7.086;2023-06-14T08:59:03;5.20;;;2.58;;
3321;SDS011;1673;51.388;7.086;2023-06-14T09:01:35;7.78;;;2.75;;
3321;SDS011;1673;51.388;7.086;2023-06-14T09:04:14;4.20;;;2.60;;
3321;SDS011;1673;51.388;7.086;2023-06-14T09:06:45;5.70;;;2.78;;
3321;SDS011;1673;51.388;7.086;2023-06-14T09:09:19;5.63;;;3.00;;
3321;SDS011;1673;51.388;7.086;2023-06-14T09:11:49;5.93;;;2.78;;
3321;SDS011;1673;51.388;7.086;2023-06-14T09:14:23;7.40;;;2.70;;
3321;SDS011;1673;51.388;7.086;2023-06-14T09:16:53;6.03;;;2.60;;
3321;SDS011;1673;51.388;7.086;2023-06-14T09:19:23;5.13;;;2.60;;
3321;SDS011;1673;51.388;7.086;2023-06-14T09:21:53;4.97;;;2.60;;
3321;SDS011;1673;51.388;7.086;2023-06-14T09:24:23;5.00;;;2.55;;
3321;SDS011;1673;51.388;7.086;2023-06-14T09:26:54;4.00;;;2.50;;
3321;SDS011;1673;51.388;7.086;2023-06-14T09:29:27;5.10;;;2.50;;
3321;SDS011;1673;51.388;7.086;2023-06-14T09:31:58;5.40;;;2.30;;
3321;SDS011;1673;51.388;7.086;2023-06-14T09:34:28;7.30;;;2.65;;
3321;SDS011;1673;51.388;7.086;2023-06-14T09:36:58;5.93;;;2.30;;
3321;SDS011;1673;51.388;7.086;2023-06-14T09:39:27;5.60;;;2.40;;
3321;SDS011;1673;51.388;7.086;2023-06-14T09:41:57;6.57;;;2.30;;
3321;SDS011;1673;51.388;7.086;2023-06-14T09:44:30;5.70;;;2.20;;
3321;SDS011;1673;51.388;7.086;2023-06-14T09:47:00;5.13;;;2.15;;
3321;SDS011;1673;51.388;7.086;2023-06-14T09:49:32;7.70;;;2.33;;
3321;SDS011;1673;51.388;7.086;2023-06-14T09:52:02;4.93;;;2.38;;
3321;SDS011;1673;51.388;7.086;2023-06-14T09:54:33;4.13;;;2.10;;
3321;SDS011;1673;51.388;7.086;2023-06-14T09:57:06;3.95;;;2.10;;
3321;SDS011;1673;51.388;7.086;2023-06-14T09:59:42;5.60;;;2.40;;
3321;SDS011;1673;51.388;7.086;2023-06-14T10:02:22;3.30;;;1.70;;
3321;SDS011;1673;51.388;7.086;2023-06-14T10:04:56;5.60;;;2.00;;
3321;SDS011;1673;51.388;7.086;2023-06-14T10:07:31;4.47;;;2.00;;
3321;SDS011;1673;51.388;7.086;2023-06-14T10:10:11;3.47;;;2.00;;
3321;SDS011;1673;51.388;7.086;2023-06-14T10:12:42;3.33;;;1.50;;
3321;SDS011;1673;51.388;7.086;2023-06-14T10:15:15;5.80;;;1.70;;
3321;SDS011;1673;51.388;7.086;2023-06-14T10:17:48;4.90;;;1.95;;
3321;SDS011;1673;51.388;7.086;2023-06-14T10:20:26;7.90;;;2.00;;
3321;SDS011;1673;51.388;7.086;2023-06-14T10:22:59;6.43;;;2.20;;
3321;SDS011;1673;51.388;7.086;2023-06-14T10:25:31;9.67;;;2.50;;
3321;SDS011;1673;51.388;7.086;2023-06-14T10:28:03;5.57;;;1.98;;
3321;SDS011;1673;51.388;7.086;2023-06-14T10:33:35;6.25;;;2.38;;
3321;SDS011;1673;51.388;7.086;2023-06-14T10:36:09;6.45;;;2.55;;
3321;SDS011;1673;51.388;7.086;2023-06-14T10:38:40;4.57;;;2.35;;
3321;SDS011;1673;51.388;7.086;2023-06-14T10:41:11;6.13;;;2.30;;
3321;SDS011;1673;51.388;7.086;2023-06-14T10:43:41;4.10;;;2.20;;
3321;SDS011;1673;51.388;7.086;2023-06-14T10:46:15;4.25;;;2.30;;
3321;SDS011;1673;51.388;7.086;2023-06-14T10:48:49;4.97;;;2.10;;
3321;SDS011;1673;51.388;7.086;2023-06-14T10:51:29;5.00;;;2.50;;
3321;SDS011;1673;51.388;7.086;2023-06-14T10:53:59;3.80;;;2.10;;
3321;SDS011;1673;51.388;7.086;2023-06-14T10:56:29;4.47;;;2.00;;
3321;SDS011;1673;51.388;7.086;2023-06-14T10:59:00;7.00;;;2.20;;
3321;SDS011;1673;51.388;7.086;2023-06-14T11:01:38;5.10;;;2.00;;
3321;SDS011;1673;51.388;7.086;2023-06-14T11:04:10;4.20;;;2.10;;
3321;SDS011;1673;51.388;7.086;2023-06-14T11:06:45;4.13;;;2.00;;
3321;SDS011;1673;51.388;7.086;2023-06-14T11:12:14;4.38;;;2.30;;
3321;SDS011;1673;51.388;7.086;2023-06-14T11:14:45;4.50;;;2.10;;
3321;SDS011;1673;51.388;7.086;2023-06-14T11:17:18;8.70;;;2.10;;
3321;SDS011;1673;51.388;7.086;2023-06-14T11:19:48;4.13;;;1.85;;
3321;SDS011;1673;51.388;7.086;2023-06-14T11:22:18;5.53;;;2.20;;
3321;SDS011;1673;51.388;7.086;2023-06-14T11:24:47;4.05;;;2.03;;
3321;SDS011;1673;51.388;7.086;2023-06-14T11:27:17;4.50;;;2.10;;
3321;SDS011;1673;51.388;7.086;2023-06-14T11:29:47;4.63;;;2.20;;
3321;SDS011;1673;51.388;7.086;2023-06-14T11:32:20;4.20;;;2.10;;
3321;SDS011;1673;51.388;7.086;2023-06-14T11:34:50;4.93;;;2.10;;
3321;SDS011;1673;51.388;7.086;2023-06-14T11:37:20;4.50;;;1.80;;
3321;SDS011;1673;51.388;7.086;2023-06-14T11:39:51;4.15;;;1.80;;
3321;SDS011;1673;51.388;7.086;2023-06-14T11:42:20;4.03;;;1.90;;
3321;SDS011;1673;51.388;7.086;2023-06-14T11:44:50;4.10;;;2.13;;
3321;SDS011;1673;51.388;7.086;2023-06-14T11:47:38;5.90;;;2.10;;
3321;SDS011;1673;51.388;7.086;2023-06-14T11:50:09;6.45;;;2.38;;
3321;SDS011;1673;51.388;7.086;2023-06-14T11:52:39;6.70;;;2.10;;
3321;SDS011;1673;51.388;7.086;2023-06-14T11:55:08;5.60;;;1.80;;
3321;SDS011;1673;51.388;7.086;2023-06-14T11:57:38;4.93;;;2.10;;
3321;SDS011;1673;51.388;7.086;2023-06-14T12:00:09;7.40;;;2.20;;
3321;SDS011;1673;51.388;7.086;2023-06-14T12:02:51;5.47;;;2.30;;
3321;SDS011;1673;51.388;7.086;2023-06-14T12:05:23;6.57;;;2.47;;
3321;SDS011;1673;51.388;7.086;2023-06-14T12:07:57;4.10;;;2.22;;
3321;SDS011;1673;51.388;7.086;2023-06-14T12:10:28;5.40;;;2.20;;
3321;SDS011;1673;51.388;7.086;2023-06-14T12:12:58;6.68;;;2.20;;
3321;SDS011;1673;51.388;7.086;2023-06-14T12:15:28;6.15;;;2.30;;
3321;SDS011;1673;51.388;7.086;2023-06-14T12:18:01;4.95;;;2.70;;
3321;SDS011;1673;51.388;7.086;2023-06-14T12:20:32;4.10;;;2.65;;
3321;SDS011;1673;51.388;7.086;2023-06-14T12:23:03;7.70;;;3.20;;
3321;SDS011;1673;51.388;7.086;2023-06-14T12:25:35;5.60;;;2.50;;
3321;SDS011;1673;51.388;7.086;2023-06-14T12:28:07;4.60;;;2.40;;
3321;SDS011;1673;51.388;7.086;2023-06-14T12:30:38;5.00;;;2.97;;
3321;SDS011;1673;51.388;7.086;2023-06-14T12:33:10;5.57;;;2.75;;
3321;SDS011;1673;51.388;7.086;2023-06-14T12:35:40;5.55;;;2.70;;
3321;SDS011;1673;51.388;7.086;2023-06-14T12:38:10;4.75;;;2.88;;
3321;SDS011;1673;51.388;7.086;2023-06-14T12:40:41;7.78;;;3.10;;
3321;SDS011;1673;51.388;7.086;2023-06-14T12:43:12;6.00;;;3.40;;
3321;SDS011;1673;51.388;7.086;2023-06-14T12:45:44;4.93;;;2.72;;
3321;SDS011;1673;51.388;7.086;2023-06-14T12:48:17;5.97;;;2.95;;
3321;SDS011;1673;51.388;7.086;2023-06-14T12:50:47;7.72;;;3.10;;
3321;SDS011;1673;51.388;7.086;2023-06-14T12:53:17;8.85;;;3.08;;
3321;SDS011;1673;51.388;7.086;2023-06-14T12:55:47;5.50;;;2.80;;
3321;SDS011;1673;51.388;7.086;2023-06-14T12:58:17;5.50;;;3.20;;
3321;SDS011;1673;51.388;7.086;2023-06-14T13:00:47;7.07;;;2.80;;
3321;SDS011;1673;51.388;7.086;2023-06-14T13:03:19;6.68;;;2.80;;
3321;SDS011;1673;51.388;7.086;2023-06-14T13:05:49;5.22;;;3.03;;
3321;SDS011;1673;51.388;7.086;2023-06-14T13:08:19;6.30;;;3.03;;
3321;SDS011;1673;51.388;7.086;2023-06-14T13:10:51;5.53;;;2.72;;
3321;SDS011;1673;51.388;7.086;2023-06-14T13:13:20;4.17;;;2.50;;
3321;SDS011;1673;51.388;7.086;2023-06-14T13:15:50;6.28;;;2.90;;
3321;SDS011;1673;51.388;7.086;2023-06-14T13:18:23;5.00;;;2.90;;
3321;SDS011;1673;51.388;7.086;2023-06-14T13:20:52;5.88;;;2.85;;
3321;SDS011;1673;51.388;7.086;2023-06-14T13:23:22;6.80;;;2.97;;
3321;SDS011;1673;51.388;7.086;2023-06-14T13:25:52;4.90;;;3.20;;
3321;SDS011;1673;51.388;7.086;2023-06-14T13:28:22;5.70;;;2.97;;
3321;SDS011;1673;51.388;7.086;2023-06-14T13:30:51;6.05;;;2.90;;
3321;SDS011;1673;51.388;7.086;2023-06-14T13:33:24;4.22;;;2.85;;
3321;SDS011;1673;51.388;7.086;2023-06-14T13:35:54;8.88;;;3.25;;
3321;SDS011;1673;51.388;7.086;2023-06-14T13:38:24;4.97;;;2.75;;
3321;SDS011;1673;51.388;7.086;2023-06-14T13:40:54;5.03;;;3.17;;
3321;SDS011;1673;51.388;7.086;2023-06-14T13:43:24;4.50;;;2.65;;
3321;SDS011;1673;51.388;7.086;2023-06-14T13:45:53;10.20;;;3.00;;
3321;SDS011;1673;51.388;7.086;2023-06-14T13:48:26;5.17;;;2.80;;
3321;SDS011;1673;51.388;7.086;2023-06-14T13:50:56;5.50;;;2.80;;
3321;SDS011;1673;51.388;7.086;2023-06-14T13:53:25;5.85;;;3.00;;
3321;SDS011;1673;51.388;7.086;2023-06-14T13:55:55;6.95;;;2.90;;
3321;SDS011;1673;51.388;7.086;2023-06-14T13:58:25;11.60;;;2.50;;
3321;SDS011;1673;51.388;7.086;2023-06-14T14:00:55;6.38;;;3.00;;
3321;SDS011;1673;51.388;7.086;2023-06-14T14:03:29;5.75;;;2.83;;
3321;SDS011;1673;51.388;7.086;2023-06-14T14:05:58;4.50;;;3.20;;
3321;SDS011;1673;51.388;7.086;2023-06-14T14:08:30;4.70;;;2.70;;
3321;SDS011;1673;51.388;7.086;2023-06-14T14:10:59;7.55;;;3.10;;
3321;SDS011;1673;51.388;7.086;2023-06-14T14:13:29;5.38;;;2.90;;
3321;SDS011;1673;51.388;7.086;2023-06-14T14:15:59;5.30;;;3.10;;
3321;SDS011;1673;51.388;7.086;2023-06-14T14:18:32;7.30;;;3.00;;
3321;SDS011;1673;51.388;7.086;2023-06-14T14:21:03;5.20;;;3.10;;
3321;SDS011;1673;51.388;7.086;2023-06-14T14:23:32;6.95;;;3.60;;
3321;SDS011;1673;51.388;7.086;2023-06-14T14:26:05;6.18;;;3.17;;
3321;SDS011;1673;51.388;7.086;2023-06-14T14:28:34;4.95;;;3.10;;
3321;SDS011;1673;51.388;7.086;2023-06-14T14:31:04;6.25;;;3.25;;
3321;SDS011;1673;51.388;7.086;2023-06-14T14:33:36;8.57;;;3.60;;
3321;SDS011;1673;51.388;7.086;2023-06-14T14:36:06;5.23;;;3.00;;
3321;SDS011;1673;51.388;7.086;2023-06-14T14:38:36;6.28;;;3.28;;
3321;SDS011;1673;51.388;7.086;2023-06-14T14:41:06;7.88;;;3.05;;
3321;SDS011;1673;51.388;7.086;2023-06-14T14:43:36;6.25;;;3.08;;
3321;SDS011;1673;51.388;7.086;2023-06-14T14:46:05;6.18;;;2.95;;
3321;SDS011;1673;51.388;7.086;2023-06-14T14:48:38;5.35;;;3.10;;
3321;SDS011;1673;51.388;7.086;2023-06-14T14:51:07;8.57;;;3.17;;
3321;SDS011;1673;51.388;7.086;2023-06-14T14:53:37;5.13;;;3.30;;
3321;SDS011;1673;51.388;7.086;2023-06-14T14:56:07;5.40;;;3.27;;
3321;SDS011;1673;51.388;7.086;2023-06-14T14:58:38;7.05;;;3.10;;
3321;SDS011;1673;51.388;7.086;2023-06-14T15:01:08;4.95;;;3.28;;
3321;SDS011;1673;51.388;7.086;2023-06-14T15:03:44;8.60;;;3.00;;
3321;SDS011;1673;51.388;7.086;2023-06-14T15:06:17;7.75;;;3.03;;
3321;SDS011;1673;51.388;7.086;2023-06-14T15:08:46;4.67;;;3.20;;
3321;SDS011;1673;51.388;7.086;2023-06-14T15:11:17;6.23;;;3.00;;
3321;SDS011;1673;51.388;7.086;2023-06-14T15:13:48;4.33;;;3.13;;
3321;SDS011;1673;51.388;7.086;2023-06-14T15:16:18;8.25;;;3.20;;
3321;SDS011;1673;51.388;7.086;2023-06-14T15:18:51;6.95;;;3.20;;
3321;SDS011;1673;51.388;7.086;2023-06-14T15:21:21;5.80;;;3.40;;
3321;SDS011;1673;51.388;7.086;2023-06-14T15:23:51;6.55;;;3.13;;
3321;SDS011;1673;51.388;7.086;2023-06-14T15:26:20;5.45;;;3.17;;
3321;SDS011;1673;51.388;7.086;2023-06-14T15:28:50;5.95;;;3.28;;
3321;SDS011;1673;51.388;7.086;2023-06-14T15:31:20;7.03;;;3.50;;
3321;SDS011;1673;51.388;7.086;2023-06-14T15:33:56;6.22;;;3.22;;
3321;SDS011;1673;51.388;7.086;2023-06-14T15:36:26;5.38;;;3.45;;
3321;SDS011;1673;51.388;7.086;2023-06-14T15:38:55;7.30;;;3.40;;
3321;SDS011;1673;51.388;7.086;2023-06-14T15:41:25;5.97;;;3.25;;